• Join FlightAware (Why Join?)
  • Login
  • US Flag 
06:57PM EDT


 

Airport Tracker/Info


-or-


 

Live Flight TrackerFlight Track Log ✈ EJA749 ✈ 11-Sep-2013 ✈ KTEB - KTEB

Flight Track Log - Related Links

Times and Time Zones

All times are in EDT time to prevent confusion due to time zone crossing. See the EJA749 flight status page for this flight to view local times or setup timezone preferences in your user account.

Time Position Orientation Groundspeed Altitude Reporting Facility
EDT Latitude Longitude Course Direction KTS MPH feet Rate Location/Type
08:31AM 40.8167 -74.1333 270° West 187 215 1,500  Level New York TRACON
08:32AM 40.8167 -74.2000 270° West 197 227 2,900 2,100 Climbing New York TRACON
08:33AM 40.8333 -74.2667 288° West 245 282 5,600 960 Climbing New York TRACON
08:35AM 40.9897 -74.2356 North 299 344 6,000 420 Climbing Boston Center
08:36AM 41.0617 -74.1744 33° Northeast 288 331 7,000 2,280 Climbing Boston Center
08:37AM 41.0942 -74.0817 65° Northeast 286 329 10,500 1,980 Climbing Boston Center
08:38AM 41.1353 -73.9725 63° Northeast 296 341 11,000 240 Climbing Boston Center
08:39AM 41.1700 -73.8794 64° Northeast 306 352 11,000 540 Level Boston Center
08:40AM 41.2153 -73.7619 63° Northeast 317 365 12,100 1,980 Climbing Boston Center
08:41AM 41.2517 -73.6658 63° Northeast 322 371 14,900 1,380 Climbing Boston Center
08:42AM 41.2881 -73.5728 62° Northeast 276 318 14,900  Level Boston Center
08:43AM 41.3242 -73.5153 50° Northeast 231 266 15,000  Climbing Boston Center
08:44AM 41.3417 -73.4244 76° East 215 247 14,900  Descending Boston Center
08:45AM 41.3567 -73.3556 74° East 220 253 15,000  Climbing Boston Center
08:46AM 41.3656 -73.2808 81° East 215 247 14,900 -60 Descending Boston Center
08:47AM 41.3536 -73.1950 100° East 209 241 14,900 420 Level Boston Center
08:48AM 41.3189 -73.1228 123° Southeast 237 273 15,800 1,020 Climbing Boston Center
08:49AM 41.2497 -73.1553 199° South 220 253 17,000 1,020 Climbing Boston Center
08:50AM 41.2719 -73.2797 283° West 200 230 17,900 1,680 Climbing Boston Center
08:51AM 41.3614 -73.3058 348° North 186 214 20,400 2,760 Climbing Boston Center
08:52AM 41.4717 -73.3100 358° North 260 299 23,600 2,460 Climbing Boston Center
08:53AM 41.5600 -73.2197 37° Northeast 304 350 25,400 900 Climbing Boston Center
08:54AM 41.6581 -73.2042 North 329 379 25,500  Climbing Boston Center
08:55AM 41.7258 -73.3164 309° West 316 364 25,500  Level Boston Center
08:56AM 41.7917 -73.4453 304° West 362 417 25,500  Level Boston Center
08:57AM 41.8694 -73.5914 306° West 433 498 25,500  Level Boston Center
08:58AM 41.8694 -73.7728 270° West 447 514 25,500 -840 Level Boston Center
08:59AM 41.8589 -73.9397 265° West 453 521 23,900 -2,640 Descending Boston Center
09:00AM 41.8528 -74.0928 267° West 435 501 20,400 -3,780 Descending Boston Center
09:01AM 41.8464 -74.2264 266° West 384 442 16,300 -3,660 Descending Boston Center
09:02AM 41.8197 -74.3317 251° West 320 368 13,000 -2,700 Descending Boston Center
09:03AM 41.7353 -74.3903 207° Southwest 309 356 11,000 -2,040 Descending Boston Center
09:04AM 41.6722 -74.4300 205° Southwest 297 342 9,100 -1,500 Descending Boston Center
09:05AM 41.5964 -74.4778 205° Southwest 280 322 8,000 -900 Descending Boston Center
09:06AM 41.5267 -74.5225 206° Southwest 274 315 7,400 -540 Descending Boston Center
09:07AM 41.4592 -74.5647 205° Southwest 274 315 7,000 -420 Descending Boston Center
09:09AM 41.3333 -74.6167 197° South 283 326 6,300 -840 Descending New York TRACON
09:10AM 41.2667 -74.5833 159° South 283 326 4,900 -1,200 Descending New York TRACON
09:11AM 41.2333 -74.4833 114° Southeast 280 322 4,000 -660 Descending New York TRACON
09:12AM 41.2000 -74.4167 124° Southeast 262 302 3,700 -540 Descending New York TRACON
09:13AM 41.1500 -74.3333 129° Southeast 276 318 3,000 -360 Descending New York TRACON
09:14AM 41.1167 -74.2500 118° Southeast 265 305 3,000  Level New York TRACON
09:14AM 41.0833 -74.1667 118° Southeast 269 310 3,000 -360 Level New York TRACON
09:16AM 41.0500 -74.0833 118° Southeast 217 250 2,300 -540 Descending New York TRACON
09:16AM 41.0000 -74.0500 153° Southeast 213 245 2,000 -240 Descending New York TRACON
09:17AM 40.9500 -74.0500 180° South 204 235 1,900 -540 Descending New York TRACON
09:18AM 40.9000 -74.0500 180° South 152 175 1,000 -780 Descending New York TRACON
09:19AM 40.8667 -74.0500 180° South 144 166 400 -720 Descending New York TRACON